createdAt,value
2023-04-19T00:01:12.727Z,7.40
2023-04-19T00:03:45.855Z,8.10
2023-04-19T00:06:18.883Z,7.70
2023-04-19T00:08:51.775Z,7.00
2023-04-19T00:11:24.583Z,7.80
2023-04-19T00:13:57.277Z,7.60
2023-04-19T00:16:29.982Z,7.80
2023-04-19T00:19:03.034Z,8.20
2023-04-19T00:21:35.944Z,6.50
2023-04-19T00:24:09.327Z,7.20
2023-04-19T00:26:41.989Z,8.00
2023-04-19T00:29:14.765Z,8.10
2023-04-19T00:31:47.610Z,7.80
2023-04-19T00:34:20.174Z,6.80
2023-04-19T00:36:53.129Z,7.40
2023-04-19T00:39:25.915Z,6.20
2023-04-19T00:41:58.750Z,7.70
2023-04-19T00:44:31.493Z,6.80
2023-04-19T00:47:04.112Z,7.50
2023-04-19T00:49:36.857Z,6.50
2023-04-19T00:52:10.483Z,6.90
2023-04-19T00:54:43.315Z,6.60
2023-04-19T00:57:15.964Z,6.50
2023-04-19T00:59:48.541Z,7.10
2023-04-19T01:02:23.381Z,6.70
2023-04-19T01:04:58.096Z,7.10
2023-04-19T01:07:31.174Z,8.10
2023-04-19T01:10:04.156Z,6.70
2023-04-19T01:12:37.283Z,6.70
2023-04-19T01:15:12.124Z,6.10
2023-04-19T01:17:44.992Z,7.40
2023-04-19T01:20:17.958Z,7.90
2023-04-19T01:22:50.834Z,7.30
2023-04-19T01:25:23.915Z,6.60
2023-04-19T01:27:56.705Z,6.60
2023-04-19T01:30:30.123Z,5.90
2023-04-19T01:33:03.188Z,6.30
2023-04-19T01:35:36.499Z,6.00
2023-04-19T01:38:09.277Z,5.80
2023-04-19T01:40:42.138Z,7.10
2023-04-19T01:43:15.602Z,6.40
2023-04-19T01:45:49.835Z,6.10
2023-04-19T01:48:23.387Z,6.40
2023-04-19T01:50:56.200Z,6.10
2023-04-19T01:53:29.146Z,5.80
2023-04-19T01:56:01.887Z,6.40
2023-04-19T01:58:34.862Z,6.30
2023-04-19T02:01:09.490Z,6.40
2023-04-19T02:03:42.940Z,6.50
2023-04-19T02:06:15.873Z,6.50
2023-04-19T02:08:48.700Z,6.70
2023-04-19T02:11:21.476Z,6.80
2023-04-19T02:13:54.240Z,5.60
2023-04-19T02:16:26.907Z,6.90
2023-04-19T02:19:00.151Z,5.90
2023-04-19T02:21:33.132Z,7.10
2023-04-19T02:24:07.007Z,6.30
2023-04-19T02:26:40.398Z,7.20
2023-04-19T02:29:13.230Z,6.80
2023-04-19T02:31:46.691Z,6.90
2023-04-19T02:34:19.837Z,6.80
2023-04-19T02:36:52.796Z,6.10
2023-04-19T02:39:25.663Z,6.00
2023-04-19T02:41:59.505Z,5.80
2023-04-19T02:44:32.607Z,6.70
2023-04-19T02:47:05.258Z,6.20
2023-04-19T02:49:41.711Z,6.70
2023-04-19T02:52:15.069Z,6.40
2023-04-19T02:54:47.972Z,7.00
2023-04-19T02:57:20.780Z,7.20
2023-04-19T02:59:53.786Z,6.70
2023-04-19T03:02:26.838Z,7.30
2023-04-19T03:05:01.668Z,7.20
2023-04-19T03:07:35.304Z,7.20
2023-04-19T03:10:11.267Z,7.90
2023-04-19T03:12:44.124Z,8.30
2023-04-19T03:15:17.525Z,8.70
2023-04-19T03:17:51.575Z,6.60
2023-04-19T03:20:25.209Z,7.40
2023-04-19T03:22:57.919Z,8.10
2023-04-19T03:25:30.895Z,7.30
2023-04-19T03:28:13.140Z,6.60
2023-04-19T03:31:14.501Z,7.20
2023-04-19T03:33:47.170Z,7.20
2023-04-19T03:36:20.730Z,7.10
2023-04-19T03:38:53.576Z,6.60
2023-04-19T03:41:28.384Z,7.40
2023-04-19T03:44:10.582Z,8.20
2023-04-19T03:46:43.689Z,7.50
2023-04-19T03:49:16.572Z,7.80
2023-04-19T03:51:51.820Z,8.80
2023-04-19T03:54:24.532Z,7.60
2023-04-19T03:56:57.327Z,6.90
2023-04-19T03:59:30.107Z,9.00
2023-04-19T04:02:04.372Z,7.20
2023-04-19T04:04:37.278Z,8.10
2023-04-19T04:07:10.345Z,7.70
2023-04-19T04:09:42.967Z,9.50
2023-04-19T04:12:15.842Z,7.50
2023-04-19T04:14:48.851Z,6.70
2023-04-19T04:17:21.751Z,8.10
2023-04-19T04:19:54.615Z,7.60
2023-04-19T04:22:28.452Z,8.40
2023-04-19T04:25:02.565Z,6.70
2023-04-19T04:27:44.333Z,6.70
2023-04-19T04:30:19.917Z,7.50
2023-04-19T04:32:53.449Z,9.60
2023-04-19T04:35:30.154Z,9.80
2023-04-19T04:38:23.704Z,8.60
2023-04-19T04:40:58.737Z,8.50
2023-04-19T04:43:33.029Z,9.60
2023-04-19T04:46:06.088Z,8.30
2023-04-19T04:48:47.143Z,7.00
2023-04-19T04:51:20.434Z,6.50
2023-04-19T04:53:54.539Z,8.20
2023-04-19T04:56:27.534Z,7.50
2023-04-19T04:59:00.614Z,9.00
2023-04-19T05:01:38.107Z,8.20
2023-04-19T05:04:11.484Z,7.90
2023-04-19T05:06:45.183Z,9.10
2023-04-19T05:09:19.140Z,10.80
2023-04-19T05:11:53.263Z,8.70
2023-04-19T05:14:26.494Z,10.60
2023-04-19T05:17:02.034Z,13.90
2023-04-19T05:19:35.003Z,15.20
2023-04-19T05:22:18.003Z,12.50
2023-04-19T05:24:55.008Z,11.40
2023-04-19T05:27:31.980Z,9.70
2023-04-19T05:30:05.268Z,13.70
2023-04-19T05:32:39.102Z,15.20
2023-04-19T05:35:18.502Z,21.30
2023-04-19T05:37:54.356Z,23.00
2023-04-19T05:40:31.846Z,24.70
2023-04-19T05:43:06.057Z,32.60
2023-04-19T05:45:40.453Z,25.20
2023-04-19T05:48:19.314Z,26.90
2023-04-19T05:51:13.970Z,26.50
2023-04-19T05:54:12.873Z,29.70
2023-04-19T05:56:48.507Z,38.80
2023-04-19T05:59:24.124Z,37.00
2023-04-19T06:01:57.577Z,26.40
2023-04-19T06:04:30.691Z,14.40
2023-04-19T06:07:06.105Z,9.80
2023-04-19T06:09:41.222Z,10.90
2023-04-19T06:12:13.988Z,9.00
2023-04-19T06:14:47.193Z,7.60
2023-04-19T06:17:24.757Z,9.70
2023-04-19T06:19:57.714Z,8.90
2023-04-19T06:22:30.364Z,9.30
2023-04-19T06:25:03.932Z,10.00
2023-04-19T06:27:37.015Z,8.90
2023-04-19T06:30:15.426Z,7.80
2023-04-19T06:32:49.282Z,9.30
2023-04-19T06:35:22.459Z,8.10
2023-04-19T06:37:55.317Z,8.60
2023-04-19T06:40:29.409Z,8.00
2023-04-19T06:43:02.160Z,6.80
2023-04-19T06:45:38.947Z,9.70
2023-04-19T06:48:11.651Z,8.80
2023-04-19T06:50:44.410Z,8.40
2023-04-19T06:53:17.255Z,8.70
2023-04-19T06:55:50.064Z,8.60
2023-04-19T06:58:22.814Z,8.00
2023-04-19T07:00:55.904Z,8.50
2023-04-19T07:03:29.746Z,7.20
2023-04-19T07:06:02.968Z,7.90
2023-04-19T07:08:48.610Z,7.90
2023-04-19T07:11:22.896Z,9.70
2023-04-19T07:13:56.221Z,8.20
2023-04-19T07:16:29.211Z,7.70
2023-04-19T07:19:02.090Z,7.90
2023-04-19T07:21:35.403Z,10.20
2023-04-19T07:24:08.924Z,6.80
2023-04-19T07:26:42.259Z,7.30
2023-04-19T07:29:15.157Z,8.00
2023-04-19T07:31:48.273Z,6.90
2023-04-19T07:34:22.737Z,9.10
2023-04-19T07:36:55.482Z,8.30
2023-04-19T07:39:28.507Z,11.80
2023-04-19T07:42:01.965Z,10.20
2023-04-19T07:44:35.683Z,11.50
2023-04-19T07:47:14.016Z,6.60
2023-04-19T07:49:47.589Z,9.00
2023-04-19T07:52:21.425Z,5.90
2023-04-19T07:54:54.347Z,6.40
2023-04-19T07:57:27.931Z,5.70
2023-04-19T08:00:02.448Z,5.40
2023-04-19T08:02:36.408Z,10.30
2023-04-19T08:05:11.144Z,7.90
2023-04-19T08:07:44.447Z,7.90
2023-04-19T08:10:18.048Z,8.90
2023-04-19T08:13:05.233Z,8.90
2023-04-19T08:16:20.292Z,7.70
2023-04-19T08:18:32.609Z,9.40
2023-04-19T08:21:05.907Z,11.10
2023-04-19T08:23:48.055Z,13.80
2023-04-19T08:26:22.972Z,9.90
2023-04-19T08:28:55.645Z,7.50
2023-04-19T08:31:28.366Z,9.70
2023-04-19T08:34:03.859Z,7.70
2023-04-19T08:36:43.402Z,6.70
2023-04-19T08:39:32.454Z,7.30
2023-04-19T08:42:24.121Z,9.90
2023-04-19T08:47:56.244Z,11.30
2023-04-19T08:50:36.123Z,14.30
2023-04-19T08:53:23.793Z,20.70
2023-04-19T08:56:12.722Z,17.70
2023-04-19T08:59:03.809Z,11.10
2023-04-19T09:01:44.773Z,10.50
2023-04-19T09:04:35.654Z,9.20
2023-04-19T09:07:09.954Z,12.10
2023-04-19T09:09:59.668Z,9.30
2023-04-19T09:15:09.935Z,9.40
2023-04-19T09:17:43.073Z,13.60
2023-04-19T09:20:16.321Z,9.10
2023-04-19T09:22:49.569Z,7.90
2023-04-19T09:25:47.200Z,6.10
2023-04-19T09:28:22.290Z,8.40
2023-04-19T09:31:05.592Z,11.80
2023-04-19T09:33:45.664Z,14.40
2023-04-19T09:36:29.307Z,11.80
2023-04-19T09:39:02.555Z,7.40
2023-04-19T09:41:37.436Z,5.60
2023-04-19T09:46:53.859Z,5.40
2023-04-19T09:49:41.601Z,5.70
2023-04-19T09:52:18.690Z,5.00
2023-04-19T09:54:54.002Z,4.80
2023-04-19T09:57:26.733Z,5.90
2023-04-19T09:59:59.321Z,5.10
2023-04-19T10:02:34.253Z,5.30
2023-04-19T10:07:44.838Z,5.00
2023-04-19T10:10:20.762Z,5.10
2023-04-19T10:13:11.588Z,5.60
2023-04-19T10:15:54.068Z,7.20
2023-04-19T10:18:32.714Z,7.10
2023-04-19T10:21:07.699Z,9.10
2023-04-19T10:23:41.621Z,8.80
2023-04-19T10:26:14.620Z,6.70
2023-04-19T10:28:47.901Z,7.00
2023-04-19T10:31:24.030Z,5.60
2023-04-19T10:33:58.090Z,6.10
2023-04-19T10:36:32.329Z,6.10
2023-04-19T10:39:05.230Z,5.70
2023-04-19T10:42:00.861Z,6.00
2023-04-19T10:44:33.970Z,5.30
2023-04-19T10:47:08.330Z,6.80
2023-04-19T10:49:48.979Z,7.00
2023-04-19T10:52:31.670Z,8.40
2023-04-19T10:55:04.380Z,9.70
2023-04-19T10:58:04.403Z,11.10
2023-04-19T11:00:38.750Z,11.10
2023-04-19T11:03:54.060Z,10.60
2023-04-19T11:06:28.201Z,10.00
2023-04-19T11:09:00.896Z,11.50
2023-04-19T11:11:36.558Z,13.80
2023-04-19T11:14:09.209Z,16.80
2023-04-19T11:16:46.116Z,15.00
2023-04-19T11:19:20.293Z,11.20
2023-04-19T11:21:53.708Z,6.80
2023-04-19T11:24:26.449Z,8.80
2023-04-19T11:27:00.107Z,9.00
2023-04-19T11:29:33.080Z,8.90
2023-04-19T11:32:06.256Z,10.30
2023-04-19T11:34:42.145Z,10.40
2023-04-19T11:37:14.945Z,12.70
2023-04-19T11:39:51.356Z,13.40
2023-04-19T11:42:24.250Z,8.90
2023-04-19T11:44:58.642Z,7.40
2023-04-19T11:47:31.700Z,7.00
2023-04-19T11:50:33.313Z,6.00
2023-04-19T11:53:14.912Z,7.30
2023-04-19T11:58:29.302Z,7.10
2023-04-19T12:01:07.761Z,6.20
2023-04-19T12:03:46.533Z,6.50
2023-04-19T12:06:20.164Z,7.30
2023-04-19T12:08:54.157Z,8.30
2023-04-19T12:11:27.817Z,7.90
2023-04-19T12:14:12.585Z,8.70
2023-04-19T12:16:46.358Z,7.30
2023-04-19T12:19:22.008Z,8.20
2023-04-19T12:21:54.919Z,6.20
2023-04-19T12:24:27.944Z,8.10
2023-04-19T12:27:00.778Z,7.70
2023-04-19T12:29:36.367Z,7.20
2023-04-19T12:32:09.228Z,7.30
2023-04-19T12:34:42.174Z,7.70
2023-04-19T12:37:14.785Z,6.90
2023-04-19T12:39:47.457Z,8.30
2023-04-19T12:42:23.227Z,7.50
2023-04-19T12:44:56.002Z,7.70
2023-04-19T12:47:29.213Z,7.30
2023-04-19T12:50:02.154Z,7.80
2023-04-19T12:52:35.254Z,8.20
2023-04-19T12:55:09.565Z,7.50
2023-04-19T12:57:42.135Z,6.70
2023-04-19T13:00:16.142Z,8.20
2023-04-19T13:02:49.704Z,8.20
2023-04-19T13:05:23.044Z,8.10
2023-04-19T13:07:56.314Z,8.90
2023-04-19T13:10:29.245Z,8.40
2023-04-19T13:13:01.989Z,10.90
2023-04-19T13:15:35.107Z,13.80
2023-04-19T13:18:07.752Z,14.00
2023-04-19T13:20:40.835Z,12.80
2023-04-19T13:23:13.436Z,12.50
2023-04-19T13:25:46.129Z,13.20
2023-04-19T13:28:18.722Z,13.60
2023-04-19T13:30:51.490Z,13.70
2023-04-19T13:33:24.718Z,15.50
2023-04-19T13:35:57.818Z,17.80
2023-04-19T13:38:30.373Z,22.00
2023-04-19T13:41:03.832Z,21.10
2023-04-19T13:43:37.433Z,16.90
2023-04-19T13:46:10.457Z,16.50
2023-04-19T13:48:43.314Z,12.80
2023-04-19T13:51:16.347Z,11.50
2023-04-19T13:53:49.033Z,10.40
2023-04-19T13:56:21.752Z,11.10
2023-04-19T13:58:54.300Z,9.80
2023-04-19T14:01:27.006Z,9.60
2023-04-19T14:03:59.999Z,10.50
2023-04-19T14:06:34.123Z,11.10
2023-04-19T14:09:07.478Z,8.90
2023-04-19T14:11:40.334Z,8.70
2023-04-19T14:14:13.083Z,9.40
2023-04-19T14:16:46.268Z,9.30
2023-04-19T14:19:19.110Z,9.10
2023-04-19T14:21:51.736Z,9.40
2023-04-19T14:24:24.832Z,8.10
2023-04-19T14:27:10.448Z,10.40
2023-04-19T14:29:43.987Z,9.70
2023-04-19T14:32:26.013Z,10.90
2023-04-19T14:35:00.780Z,11.90
2023-04-19T14:37:33.674Z,9.90
2023-04-19T14:40:08.034Z,10.40
2023-04-19T14:42:41.441Z,12.50
2023-04-19T14:45:16.121Z,13.50
2023-04-19T14:47:49.291Z,11.80
2023-04-19T14:50:22.953Z,12.10
2023-04-19T14:52:55.969Z,11.40
2023-04-19T14:55:29.106Z,12.20
2023-04-19T14:58:02.102Z,14.80
2023-04-19T15:00:35.063Z,10.80
2023-04-19T15:03:08.070Z,12.50
2023-04-19T15:05:41.417Z,10.40
2023-04-19T15:08:28.986Z,9.70
2023-04-19T15:11:03.439Z,13.10
2023-04-19T15:13:37.543Z,12.30
2023-04-19T15:16:11.877Z,12.20
2023-04-19T15:18:44.756Z,10.90
2023-04-19T15:21:21.251Z,10.20
2023-04-19T15:23:56.878Z,10.70
2023-04-19T15:26:30.338Z,10.90
2023-04-19T15:29:03.014Z,11.10
2023-04-19T15:31:36.198Z,9.70
2023-04-19T15:34:09.105Z,9.70
2023-04-19T15:36:41.851Z,8.30
2023-04-19T15:39:14.519Z,11.50
2023-04-19T15:41:47.439Z,11.70
2023-04-19T15:44:20.120Z,10.20
2023-04-19T15:46:52.855Z,9.90
2023-04-19T15:49:25.592Z,10.00
2023-04-19T15:51:58.292Z,11.00
2023-04-19T15:54:31.247Z,9.10
2023-04-19T15:57:03.883Z,9.80
2023-04-19T15:59:36.960Z,11.40
2023-04-19T16:02:09.659Z,11.50
2023-04-19T16:04:42.791Z,10.90
2023-04-19T16:07:15.588Z,9.50
2023-04-19T16:09:49.123Z,11.20
2023-04-19T16:12:22.382Z,10.00
2023-04-19T16:14:55.002Z,12.00
2023-04-19T16:17:29.034Z,9.20
2023-04-19T16:20:12.686Z,9.90
2023-04-19T16:22:47.760Z,10.30
2023-04-19T16:25:25.623Z,11.50
2023-04-19T16:27:59.341Z,10.80
2023-04-19T16:30:32.140Z,10.40
2023-04-19T16:33:05.204Z,10.20
2023-04-19T16:35:37.982Z,10.10
2023-04-19T16:38:11.128Z,11.60
2023-04-19T16:40:46.500Z,11.20
2023-04-19T16:43:21.085Z,10.20
2023-04-19T16:45:53.871Z,10.10
2023-04-19T16:48:27.238Z,9.60
2023-04-19T16:50:59.945Z,10.70
2023-04-19T16:53:34.007Z,9.00
2023-04-19T16:56:07.309Z,10.00
2023-04-19T16:58:39.988Z,10.00
2023-04-19T17:01:12.901Z,10.10
2023-04-19T17:03:46.057Z,10.60
2023-04-19T17:06:19.551Z,9.90
2023-04-19T17:08:52.193Z,9.10
2023-04-19T17:11:25.365Z,9.30
2023-04-19T17:13:58.549Z,9.10
2023-04-19T17:16:31.224Z,9.40
2023-04-19T17:19:04.195Z,9.00
2023-04-19T17:21:37.390Z,9.40
2023-04-19T17:24:11.149Z,8.70
2023-04-19T17:26:43.856Z,9.10
2023-04-19T17:29:17.111Z,9.90
2023-04-19T17:31:50.490Z,9.20
2023-04-19T17:34:23.361Z,10.00
2023-04-19T17:36:56.148Z,8.50
2023-04-19T17:39:29.306Z,8.90
2023-04-19T17:42:02.698Z,8.80
2023-04-19T17:44:35.697Z,9.10
2023-04-19T17:47:09.707Z,9.50
2023-04-19T17:49:42.435Z,9.30
2023-04-19T17:52:15.430Z,10.40
2023-04-19T17:54:49.437Z,10.20
2023-04-19T17:57:22.208Z,10.10
2023-04-19T17:59:55.334Z,10.30
2023-04-19T18:02:28.459Z,10.20
2023-04-19T18:05:01.686Z,11.10
2023-04-19T18:07:36.746Z,9.30
2023-04-19T18:10:11.382Z,11.60
2023-04-19T18:12:44.778Z,9.50
2023-04-19T18:15:17.628Z,10.40
2023-04-19T18:17:50.693Z,9.70
2023-04-19T18:20:23.640Z,13.00
2023-04-19T18:22:59.406Z,11.10
2023-04-19T18:25:35.721Z,10.50
2023-04-19T18:28:08.480Z,9.90
2023-04-19T18:30:41.370Z,11.10
2023-04-19T18:33:13.965Z,10.70
2023-04-19T18:35:46.560Z,9.30
2023-04-19T18:38:19.620Z,9.20
2023-04-19T18:40:52.535Z,9.90
2023-04-19T18:43:25.711Z,9.60
2023-04-19T18:45:59.473Z,9.80
2023-04-19T18:48:32.169Z,11.10
2023-04-19T18:51:04.978Z,10.00
2023-04-19T18:53:37.836Z,10.50
2023-04-19T18:56:12.213Z,11.20
2023-04-19T18:58:45.178Z,9.60
2023-04-19T19:01:17.800Z,9.10
2023-04-19T19:04:10.775Z,9.40
2023-04-19T19:06:45.451Z,11.50
2023-04-19T19:09:18.754Z,9.70
2023-04-19T19:11:56.621Z,10.30
2023-04-19T19:14:30.048Z,9.70
2023-04-19T19:17:02.697Z,10.10
2023-04-19T19:19:35.561Z,9.20
2023-04-19T19:22:22.743Z,9.80
2023-04-19T19:25:00.198Z,9.70
2023-04-19T19:27:33.083Z,8.60
2023-04-19T19:30:07.992Z,9.00
2023-04-19T19:32:41.630Z,9.60
2023-04-19T19:35:14.421Z,10.40
2023-04-19T19:37:47.051Z,9.40
2023-04-19T19:40:22.746Z,8.50
2023-04-19T19:42:56.179Z,10.00
2023-04-19T19:45:31.344Z,9.20
2023-04-19T19:48:05.426Z,9.00
2023-04-19T19:51:07.345Z,9.20
2023-04-19T19:53:32.640Z,8.30
2023-04-19T19:56:13.038Z,8.60
2023-04-19T19:58:52.059Z,8.10
2023-04-19T20:01:27.027Z,7.40
2023-04-19T20:04:00.151Z,8.10
2023-04-19T20:09:10.056Z,8.60
2023-04-19T20:11:43.417Z,8.00
2023-04-19T20:14:16.386Z,7.70
2023-04-19T20:16:48.985Z,7.90
2023-04-19T20:19:22.149Z,8.40
2023-04-19T20:21:54.704Z,7.30
2023-04-19T20:24:27.521Z,8.10
2023-04-19T20:27:00.347Z,8.10
2023-04-19T20:29:33.465Z,8.30
2023-04-19T20:32:08.648Z,8.30
2023-04-19T20:34:42.121Z,7.60
2023-04-19T20:37:15.087Z,8.10
2023-04-19T20:39:47.880Z,7.90
2023-04-19T20:42:20.814Z,7.10
2023-04-19T20:44:54.012Z,8.30
2023-04-19T20:47:26.969Z,7.40
2023-04-19T20:49:59.849Z,7.80
2023-04-19T20:52:32.627Z,9.10
2023-04-19T20:55:05.673Z,7.50
2023-04-19T20:57:38.394Z,8.30
2023-04-19T21:00:16.251Z,7.50
2023-04-19T21:02:49.691Z,7.30
2023-04-19T21:05:22.987Z,6.40
2023-04-19T21:07:56.014Z,6.70
2023-04-19T21:10:28.777Z,8.50
2023-04-19T21:13:01.531Z,7.80
2023-04-19T21:15:37.158Z,7.30
2023-04-19T21:18:09.755Z,8.40
2023-04-19T21:20:42.516Z,8.20
2023-04-19T21:23:16.666Z,7.40
2023-04-19T21:25:49.368Z,7.30
2023-04-19T21:28:23.050Z,7.90
2023-04-19T21:30:56.185Z,8.00
2023-04-19T21:33:29.071Z,9.40
2023-04-19T21:36:02.187Z,7.20
2023-04-19T21:38:34.961Z,6.50
2023-04-19T21:41:09.172Z,6.70
2023-04-19T21:43:41.940Z,8.20
2023-04-19T21:46:14.636Z,6.90
2023-04-19T21:48:47.253Z,7.80
2023-04-19T21:51:21.010Z,7.50
2023-04-19T21:53:53.542Z,7.10
2023-04-19T21:56:26.472Z,7.70
2023-04-19T21:58:59.050Z,7.70
2023-04-19T22:01:31.784Z,7.60
2023-04-19T22:04:04.814Z,8.50
2023-04-19T22:06:37.577Z,8.30
2023-04-19T22:09:11.496Z,7.70
2023-04-19T22:11:45.142Z,8.70
2023-04-19T22:14:18.806Z,7.80
2023-04-19T22:16:51.795Z,8.00
2023-04-19T22:19:24.957Z,8.10
2023-04-19T22:21:57.839Z,7.40
2023-04-19T22:24:30.633Z,7.60
2023-04-19T22:27:04.106Z,8.40
2023-04-19T22:29:38.674Z,8.90
2023-04-19T22:32:11.380Z,7.30
2023-04-19T22:34:44.234Z,7.90
2023-04-19T22:37:16.943Z,9.70
2023-04-19T22:39:49.696Z,9.10
2023-04-19T22:42:22.436Z,8.50
2023-04-19T22:44:55.262Z,8.70
2023-04-19T22:47:28.175Z,7.90
2023-04-19T22:50:00.815Z,7.80
2023-04-19T22:52:34.847Z,8.80
2023-04-19T22:55:08.473Z,7.50
2023-04-19T22:57:41.731Z,7.20
2023-04-19T23:00:17.366Z,9.10
2023-04-19T23:02:50.195Z,8.90
2023-04-19T23:05:23.185Z,8.50
2023-04-19T23:07:57.497Z,8.80
2023-04-19T23:10:31.057Z,8.80
2023-04-19T23:13:04.150Z,8.70
2023-04-19T23:15:37.352Z,9.70
2023-04-19T23:18:10.084Z,9.30
2023-04-19T23:20:43.293Z,10.50
2023-04-19T23:23:16.006Z,9.60
2023-04-19T23:25:48.896Z,10.00
2023-04-19T23:28:21.559Z,10.20
2023-04-19T23:30:54.211Z,9.40
2023-04-19T23:33:27.689Z,9.20
2023-04-19T23:36:00.300Z,10.00
2023-04-19T23:38:32.946Z,9.40
2023-04-19T23:41:05.663Z,8.90
2023-04-19T23:43:38.459Z,8.70
2023-04-19T23:46:11.115Z,10.90
2023-04-19T23:48:43.966Z,9.40
2023-04-19T23:51:16.581Z,11.30
2023-04-19T23:53:49.786Z,9.40
2023-04-19T23:56:22.485Z,10.00
2023-04-19T23:58:55.138Z,8.80
